sensor_id;sensor_type;location;lat;lon;timestamp;P1;durP1;ratioP1;P2;durP2;ratioP2
8628;SDS011;4352;49.404;11.092;2022-07-29T00:02:05;3.53;;;2.40;;
8628;SDS011;4352;49.404;11.092;2022-07-29T00:04:33;3.80;;;1.97;;
8628;SDS011;4352;49.404;11.092;2022-07-29T00:07:00;4.70;;;2.20;;
8628;SDS011;4352;49.404;11.092;2022-07-29T00:09:28;3.47;;;2.23;;
8628;SDS011;4352;49.404;11.092;2022-07-29T00:11:55;3.03;;;2.37;;
8628;SDS011;4352;49.404;11.092;2022-07-29T00:14:23;3.37;;;2.07;;
8628;SDS011;4352;49.404;11.092;2022-07-29T00:16:52;11.20;;;2.47;;
8628;SDS011;4352;49.404;11.092;2022-07-29T00:19:19;4.23;;;2.30;;
8628;SDS011;4352;49.404;11.092;2022-07-29T00:21:46;4.27;;;2.20;;
8628;SDS011;4352;49.404;11.092;2022-07-29T00:24:13;4.70;;;2.27;;
8628;SDS011;4352;49.404;11.092;2022-07-29T00:26:40;3.63;;;2.23;;
8628;SDS011;4352;49.404;11.092;2022-07-29T00:29:07;5.50;;;2.30;;
8628;SDS011;4352;49.404;11.092;2022-07-29T00:31:34;3.37;;;2.33;;
8628;SDS011;4352;49.404;11.092;2022-07-29T00:34:03;3.50;;;2.07;;
8628;SDS011;4352;49.404;11.092;2022-07-29T00:36:31;5.77;;;2.13;;
8628;SDS011;4352;49.404;11.092;2022-07-29T00:38:57;5.67;;;2.33;;
8628;SDS011;4352;49.404;11.092;2022-07-29T00:41:24;5.33;;;2.30;;
8628;SDS011;4352;49.404;11.092;2022-07-29T00:43:51;5.30;;;2.17;;
8628;SDS011;4352;49.404;11.092;2022-07-29T00:46:18;6.13;;;2.20;;
8628;SDS011;4352;49.404;11.092;2022-07-29T00:48:45;3.57;;;1.90;;
8628;SDS011;4352;49.404;11.092;2022-07-29T00:51:14;3.77;;;2.00;;
8628;SDS011;4352;49.404;11.092;2022-07-29T00:53:41;4.30;;;2.20;;
8628;SDS011;4352;49.404;11.092;2022-07-29T00:56:09;5.97;;;2.50;;
8628;SDS011;4352;49.404;11.092;2022-07-29T00:58:36;3.23;;;2.20;;
8628;SDS011;4352;49.404;11.092;2022-07-29T01:01:03;10.13;;;2.27;;
8628;SDS011;4352;49.404;11.092;2022-07-29T01:03:30;4.60;;;2.30;;
8628;SDS011;4352;49.404;11.092;2022-07-29T01:05:57;4.23;;;2.17;;
8628;SDS011;4352;49.404;11.092;2022-07-29T01:08:26;3.17;;;2.17;;
8628;SDS011;4352;49.404;11.092;2022-07-29T01:10:53;8.03;;;2.97;;
8628;SDS011;4352;49.404;11.092;2022-07-29T01:13:21;5.23;;;2.37;;
8628;SDS011;4352;49.404;11.092;2022-07-29T01:15:49;5.03;;;2.40;;
8628;SDS011;4352;49.404;11.092;2022-07-29T01:18:20;5.13;;;2.20;;
8628;SDS011;4352;49.404;11.092;2022-07-29T01:23:50;4.03;;;2.60;;
8628;SDS011;4352;49.404;11.092;2022-07-29T01:26:28;6.80;;;2.47;;
8628;SDS011;4352;49.404;11.092;2022-07-29T01:29:02;5.83;;;2.37;;
8628;SDS011;4352;49.404;11.092;2022-07-29T01:31:31;6.13;;;2.40;;
8628;SDS011;4352;49.404;11.092;2022-07-29T01:34:01;5.90;;;2.57;;
8628;SDS011;4352;49.404;11.092;2022-07-29T01:36:31;5.97;;;2.97;;
8628;SDS011;4352;49.404;11.092;2022-07-29T01:39:04;6.83;;;2.30;;
8628;SDS011;4352;49.404;11.092;2022-07-29T01:41:32;9.10;;;2.30;;
8628;SDS011;4352;49.404;11.092;2022-07-29T01:44:04;4.33;;;2.53;;
8628;SDS011;4352;49.404;11.092;2022-07-29T01:46:35;4.70;;;2.20;;
8628;SDS011;4352;49.404;11.092;2022-07-29T01:49:06;3.87;;;2.40;;
8628;SDS011;4352;49.404;11.092;2022-07-29T01:51:35;2.70;;;2.10;;
8628;SDS011;4352;49.404;11.092;2022-07-29T01:54:06;7.93;;;2.87;;
8628;SDS011;4352;49.404;11.092;2022-07-29T01:56:35;3.93;;;2.37;;
8628;SDS011;4352;49.404;11.092;2022-07-29T01:59:04;4.90;;;2.70;;
8628;SDS011;4352;49.404;11.092;2022-07-29T02:01:33;4.70;;;2.70;;
8628;SDS011;4352;49.404;11.092;2022-07-29T02:04:01;3.17;;;2.50;;
8628;SDS011;4352;49.404;11.092;2022-07-29T02:06:29;4.17;;;2.07;;
8628;SDS011;4352;49.404;11.092;2022-07-29T02:08:57;6.03;;;2.43;;
8628;SDS011;4352;49.404;11.092;2022-07-29T02:11:25;9.10;;;2.50;;
8628;SDS011;4352;49.404;11.092;2022-07-29T02:13:52;4.23;;;2.40;;
8628;SDS011;4352;49.404;11.092;2022-07-29T02:16:23;2.80;;;2.50;;
8628;SDS011;4352;49.404;11.092;2022-07-29T02:18:52;2.83;;;2.23;;
8628;SDS011;4352;49.404;11.092;2022-07-29T02:21:20;3.87;;;2.57;;
8628;SDS011;4352;49.404;11.092;2022-07-29T02:23:48;4.43;;;2.50;;
8628;SDS011;4352;49.404;11.092;2022-07-29T02:26:18;4.20;;;2.43;;
8628;SDS011;4352;49.404;11.092;2022-07-29T02:28:46;6.03;;;2.50;;
8628;SDS011;4352;49.404;11.092;2022-07-29T02:31:14;6.43;;;2.90;;
8628;SDS011;4352;49.404;11.092;2022-07-29T02:33:43;5.80;;;2.37;;
8628;SDS011;4352;49.404;11.092;2022-07-29T02:36:11;3.93;;;2.60;;
8628;SDS011;4352;49.404;11.092;2022-07-29T02:38:38;5.67;;;2.60;;
8628;SDS011;4352;49.404;11.092;2022-07-29T02:41:18;4.77;;;2.23;;
8628;SDS011;4352;49.404;11.092;2022-07-29T02:43:47;3.67;;;2.30;;
8628;SDS011;4352;49.404;11.092;2022-07-29T02:46:16;6.57;;;2.50;;
8628;SDS011;4352;49.404;11.092;2022-07-29T02:48:48;4.37;;;2.37;;
8628;SDS011;4352;49.404;11.092;2022-07-29T02:51:17;5.47;;;2.60;;
8628;SDS011;4352;49.404;11.092;2022-07-29T02:53:44;4.23;;;2.40;;
8628;SDS011;4352;49.404;11.092;2022-07-29T02:56:14;6.13;;;3.00;;
8628;SDS011;4352;49.404;11.092;2022-07-29T02:58:45;4.20;;;3.00;;
8628;SDS011;4352;49.404;11.092;2022-07-29T03:01:15;7.70;;;2.50;;
8628;SDS011;4352;49.404;11.092;2022-07-29T03:03:44;7.07;;;2.60;;
8628;SDS011;4352;49.404;11.092;2022-07-29T03:06:13;6.70;;;3.10;;
8628;SDS011;4352;49.404;11.092;2022-07-29T03:08:41;6.83;;;2.60;;
8628;SDS011;4352;49.404;11.092;2022-07-29T03:11:09;5.70;;;2.83;;
8628;SDS011;4352;49.404;11.092;2022-07-29T03:13:36;5.57;;;2.43;;
8628;SDS011;4352;49.404;11.092;2022-07-29T03:16:04;8.97;;;3.00;;
8628;SDS011;4352;49.404;11.092;2022-07-29T03:18:31;8.30;;;2.40;;
8628;SDS011;4352;49.404;11.092;2022-07-29T03:20:59;6.57;;;3.10;;
8628;SDS011;4352;49.404;11.092;2022-07-29T03:23:27;6.53;;;2.90;;
8628;SDS011;4352;49.404;11.092;2022-07-29T03:25:55;5.73;;;2.53;;
8628;SDS011;4352;49.404;11.092;2022-07-29T03:28:22;3.50;;;2.50;;
8628;SDS011;4352;49.404;11.092;2022-07-29T03:30:49;3.87;;;2.30;;
8628;SDS011;4352;49.404;11.092;2022-07-29T03:33:16;6.30;;;2.77;;
8628;SDS011;4352;49.404;11.092;2022-07-29T03:35:44;7.03;;;3.00;;
8628;SDS011;4352;49.404;11.092;2022-07-29T03:38:11;5.47;;;2.87;;
8628;SDS011;4352;49.404;11.092;2022-07-29T03:40:41;4.50;;;2.80;;
8628;SDS011;4352;49.404;11.092;2022-07-29T03:43:09;3.10;;;2.37;;
8628;SDS011;4352;49.404;11.092;2022-07-29T03:45:37;4.50;;;2.67;;
8628;SDS011;4352;49.404;11.092;2022-07-29T03:48:06;4.00;;;2.50;;
8628;SDS011;4352;49.404;11.092;2022-07-29T03:50:35;5.83;;;2.73;;
8628;SDS011;4352;49.404;11.092;2022-07-29T03:53:02;4.07;;;2.77;;
8628;SDS011;4352;49.404;11.092;2022-07-29T03:55:32;6.03;;;2.77;;
8628;SDS011;4352;49.404;11.092;2022-07-29T03:58:01;3.47;;;2.70;;
8628;SDS011;4352;49.404;11.092;2022-07-29T04:00:29;6.43;;;2.57;;
8628;SDS011;4352;49.404;11.092;2022-07-29T04:02:56;6.63;;;2.60;;
8628;SDS011;4352;49.404;11.092;2022-07-29T04:05:23;4.47;;;2.50;;
8628;SDS011;4352;49.404;11.092;2022-07-29T04:07:51;3.13;;;2.50;;
8628;SDS011;4352;49.404;11.092;2022-07-29T04:10:18;7.63;;;2.80;;
8628;SDS011;4352;49.404;11.092;2022-07-29T04:12:45;3.40;;;2.50;;
8628;SDS011;4352;49.404;11.092;2022-07-29T04:15:13;5.03;;;2.73;;
8628;SDS011;4352;49.404;11.092;2022-07-29T04:17:40;3.23;;;2.40;;
8628;SDS011;4352;49.404;11.092;2022-07-29T04:20:08;8.57;;;2.77;;
8628;SDS011;4352;49.404;11.092;2022-07-29T04:22:37;4.87;;;2.70;;
8628;SDS011;4352;49.404;11.092;2022-07-29T04:25:05;5.77;;;3.20;;
8628;SDS011;4352;49.404;11.092;2022-07-29T04:27:32;5.20;;;2.50;;
8628;SDS011;4352;49.404;11.092;2022-07-29T04:29:59;6.40;;;2.70;;
8628;SDS011;4352;49.404;11.092;2022-07-29T04:32:27;3.47;;;2.67;;
8628;SDS011;4352;49.404;11.092;2022-07-29T04:34:54;6.90;;;2.83;;
8628;SDS011;4352;49.404;11.092;2022-07-29T04:37:22;2.83;;;2.40;;
8628;SDS011;4352;49.404;11.092;2022-07-29T04:39:49;5.87;;;2.73;;
8628;SDS011;4352;49.404;11.092;2022-07-29T04:42:16;4.37;;;2.80;;
8628;SDS011;4352;49.404;11.092;2022-07-29T04:44:43;4.70;;;2.63;;
8628;SDS011;4352;49.404;11.092;2022-07-29T04:47:10;7.63;;;3.13;;
8628;SDS011;4352;49.404;11.092;2022-07-29T04:49:39;3.97;;;2.77;;
8628;SDS011;4352;49.404;11.092;2022-07-29T04:52:06;4.07;;;2.90;;
8628;SDS011;4352;49.404;11.092;2022-07-29T04:54:33;5.50;;;3.03;;
8628;SDS011;4352;49.404;11.092;2022-07-29T04:57:00;6.63;;;2.80;;
8628;SDS011;4352;49.404;11.092;2022-07-29T04:59:27;4.77;;;3.23;;
8628;SDS011;4352;49.404;11.092;2022-07-29T05:01:54;5.53;;;2.93;;
8628;SDS011;4352;49.404;11.092;2022-07-29T05:04:22;5.53;;;2.90;;
8628;SDS011;4352;49.404;11.092;2022-07-29T05:06:50;4.30;;;2.60;;
8628;SDS011;4352;49.404;11.092;2022-07-29T05:09:17;3.80;;;2.43;;
8628;SDS011;4352;49.404;11.092;2022-07-29T05:11:44;9.13;;;2.73;;
8628;SDS011;4352;49.404;11.092;2022-07-29T05:14:11;9.30;;;2.70;;
8628;SDS011;4352;49.404;11.092;2022-07-29T05:16:39;5.67;;;2.90;;
8628;SDS011;4352;49.404;11.092;2022-07-29T05:19:06;4.57;;;3.17;;
8628;SDS011;4352;49.404;11.092;2022-07-29T05:21:34;4.03;;;2.70;;
8628;SDS011;4352;49.404;11.092;2022-07-29T05:24:02;3.90;;;2.90;;
8628;SDS011;4352;49.404;11.092;2022-07-29T05:26:29;3.33;;;2.70;;
8628;SDS011;4352;49.404;11.092;2022-07-29T05:28:56;4.57;;;2.70;;
8628;SDS011;4352;49.404;11.092;2022-07-29T05:31:23;5.33;;;2.60;;
8628;SDS011;4352;49.404;11.092;2022-07-29T05:33:51;9.87;;;3.00;;
8628;SDS011;4352;49.404;11.092;2022-07-29T05:36:18;3.90;;;2.43;;
8628;SDS011;4352;49.404;11.092;2022-07-29T05:38:45;4.87;;;2.37;;
8628;SDS011;4352;49.404;11.092;2022-07-29T05:41:13;7.63;;;2.67;;
8628;SDS011;4352;49.404;11.092;2022-07-29T05:43:41;8.23;;;3.00;;
8628;SDS011;4352;49.404;11.092;2022-07-29T05:46:08;9.13;;;3.07;;
8628;SDS011;4352;49.404;11.092;2022-07-29T05:48:35;8.07;;;2.70;;
8628;SDS011;4352;49.404;11.092;2022-07-29T05:51:03;6.33;;;2.33;;
8628;SDS011;4352;49.404;11.092;2022-07-29T05:53:31;7.53;;;2.50;;
8628;SDS011;4352;49.404;11.092;2022-07-29T05:55:58;3.43;;;2.30;;
8628;SDS011;4352;49.404;11.092;2022-07-29T05:58:26;6.90;;;2.63;;
8628;SDS011;4352;49.404;11.092;2022-07-29T06:00:54;3.57;;;2.50;;
8628;SDS011;4352;49.404;11.092;2022-07-29T06:03:24;6.10;;;2.50;;
8628;SDS011;4352;49.404;11.092;2022-07-29T06:05:51;7.90;;;2.63;;
8628;SDS011;4352;49.404;11.092;2022-07-29T06:08:18;9.43;;;2.80;;
8628;SDS011;4352;49.404;11.092;2022-07-29T06:10:45;6.90;;;2.77;;
8628;SDS011;4352;49.404;11.092;2022-07-29T06:13:13;5.20;;;2.63;;
8628;SDS011;4352;49.404;11.092;2022-07-29T06:15:42;4.53;;;2.40;;
8628;SDS011;4352;49.404;11.092;2022-07-29T06:18:09;5.73;;;2.93;;
8628;SDS011;4352;49.404;11.092;2022-07-29T06:20:36;6.67;;;2.63;;
8628;SDS011;4352;49.404;11.092;2022-07-29T06:23:03;7.83;;;2.67;;
8628;SDS011;4352;49.404;11.092;2022-07-29T06:25:31;5.90;;;2.40;;
8628;SDS011;4352;49.404;11.092;2022-07-29T06:27:59;7.73;;;2.40;;
8628;SDS011;4352;49.404;11.092;2022-07-29T06:30:26;4.77;;;2.50;;
8628;SDS011;4352;49.404;11.092;2022-07-29T06:32:55;3.93;;;2.40;;
8628;SDS011;4352;49.404;11.092;2022-07-29T06:35:23;3.43;;;2.10;;
8628;SDS011;4352;49.404;11.092;2022-07-29T06:37:50;5.00;;;2.10;;
8628;SDS011;4352;49.404;11.092;2022-07-29T06:40:17;6.23;;;2.50;;
8628;SDS011;4352;49.404;11.092;2022-07-29T06:43:13;9.43;;;2.70;;
8628;SDS011;4352;49.404;11.092;2022-07-29T06:45:40;5.63;;;2.30;;
8628;SDS011;4352;49.404;11.092;2022-07-29T06:48:09;4.17;;;2.40;;
8628;SDS011;4352;49.404;11.092;2022-07-29T06:50:36;4.80;;;2.47;;
8628;SDS011;4352;49.404;11.092;2022-07-29T06:53:04;5.70;;;2.40;;
8628;SDS011;4352;49.404;11.092;2022-07-29T06:55:31;4.70;;;2.73;;
8628;SDS011;4352;49.404;11.092;2022-07-29T06:57:58;4.00;;;2.83;;
8628;SDS011;4352;49.404;11.092;2022-07-29T07:00:26;4.50;;;2.67;;
8628;SDS011;4352;49.404;11.092;2022-07-29T07:02:53;5.07;;;2.60;;
8628;SDS011;4352;49.404;11.092;2022-07-29T07:05:22;5.73;;;2.37;;
8628;SDS011;4352;49.404;11.092;2022-07-29T07:07:49;6.60;;;2.43;;
8628;SDS011;4352;49.404;11.092;2022-07-29T07:10:16;9.27;;;3.07;;
8628;SDS011;4352;49.404;11.092;2022-07-29T07:12:43;6.90;;;2.50;;
8628;SDS011;4352;49.404;11.092;2022-07-29T07:15:10;2.83;;;2.50;;
8628;SDS011;4352;49.404;11.092;2022-07-29T07:17:37;6.03;;;3.00;;
8628;SDS011;4352;49.404;11.092;2022-07-29T07:20:05;3.63;;;2.70;;
8628;SDS011;4352;49.404;11.092;2022-07-29T07:22:33;7.33;;;2.67;;
8628;SDS011;4352;49.404;11.092;2022-07-29T07:25:00;9.63;;;2.63;;
8628;SDS011;4352;49.404;11.092;2022-07-29T07:27:27;5.77;;;2.27;;
8628;SDS011;4352;49.404;11.092;2022-07-29T07:29:54;2.67;;;2.40;;
8628;SDS011;4352;49.404;11.092;2022-07-29T07:32:22;6.93;;;3.20;;
8628;SDS011;4352;49.404;11.092;2022-07-29T07:34:49;4.07;;;2.27;;
8628;SDS011;4352;49.404;11.092;2022-07-29T07:37:16;4.50;;;2.70;;
8628;SDS011;4352;49.404;11.092;2022-07-29T07:39:45;6.07;;;2.67;;
8628;SDS011;4352;49.404;11.092;2022-07-29T07:42:12;3.70;;;2.43;;
8628;SDS011;4352;49.404;11.092;2022-07-29T07:44:40;3.53;;;2.40;;
8628;SDS011;4352;49.404;11.092;2022-07-29T07:47:07;9.40;;;2.90;;
8628;SDS011;4352;49.404;11.092;2022-07-29T07:49:34;7.17;;;2.70;;
8628;SDS011;4352;49.404;11.092;2022-07-29T07:52:01;5.22;;;2.60;;
8628;SDS011;4352;49.404;11.092;2022-07-29T07:54:28;5.05;;;2.70;;
8628;SDS011;4352;49.404;11.092;2022-07-29T07:56:57;3.75;;;2.60;;
8628;SDS011;4352;49.404;11.092;2022-07-29T07:59:25;3.20;;;2.60;;
8628;SDS011;4352;49.404;11.092;2022-07-29T08:01:52;4.90;;;2.95;;
8628;SDS011;4352;49.404;11.092;2022-07-29T08:04:19;5.10;;;2.58;;
8628;SDS011;4352;49.404;11.092;2022-07-29T08:06:46;4.43;;;2.60;;
8628;SDS011;4352;49.404;11.092;2022-07-29T08:09:14;4.82;;;2.35;;
8628;SDS011;4352;49.404;11.092;2022-07-29T08:11:42;3.75;;;2.60;;
8628;SDS011;4352;49.404;11.092;2022-07-29T08:14:10;4.30;;;2.53;;
8628;SDS011;4352;49.404;11.092;2022-07-29T08:16:38;5.53;;;2.70;;
8628;SDS011;4352;49.404;11.092;2022-07-29T08:19:05;7.85;;;2.67;;
8628;SDS011;4352;49.404;11.092;2022-07-29T08:21:32;3.00;;;2.53;;
8628;SDS011;4352;49.404;11.092;2022-07-29T08:24:00;4.78;;;2.67;;
8628;SDS011;4352;49.404;11.092;2022-07-29T08:26:41;5.47;;;3.03;;
8628;SDS011;4352;49.404;11.092;2022-07-29T08:29:08;6.07;;;3.00;;
8628;SDS011;4352;49.404;11.092;2022-07-29T08:31:36;3.55;;;2.58;;
8628;SDS011;4352;49.404;11.092;2022-07-29T08:34:04;7.68;;;2.95;;
8628;SDS011;4352;49.404;11.092;2022-07-29T08:36:31;5.68;;;2.90;;
8628;SDS011;4352;49.404;11.092;2022-07-29T08:38:59;5.35;;;2.60;;
8628;SDS011;4352;49.404;11.092;2022-07-29T08:41:26;3.92;;;2.72;;
8628;SDS011;4352;49.404;11.092;2022-07-29T08:43:53;8.75;;;2.95;;
8628;SDS011;4352;49.404;11.092;2022-07-29T08:46:21;5.13;;;2.80;;
8628;SDS011;4352;49.404;11.092;2022-07-29T08:48:50;4.38;;;2.63;;
8628;SDS011;4352;49.404;11.092;2022-07-29T08:51:18;6.43;;;2.70;;
8628;SDS011;4352;49.404;11.092;2022-07-29T08:53:47;3.55;;;2.75;;
8628;SDS011;4352;49.404;11.092;2022-07-29T08:56:15;6.28;;;2.78;;
8628;SDS011;4352;49.404;11.092;2022-07-29T08:58:43;3.17;;;2.50;;
8628;SDS011;4352;49.404;11.092;2022-07-29T09:01:10;7.00;;;2.70;;
8628;SDS011;4352;49.404;11.092;2022-07-29T09:03:39;4.00;;;2.45;;
8628;SDS011;4352;49.404;11.092;2022-07-29T09:06:08;4.40;;;3.10;;
8628;SDS011;4352;49.404;11.092;2022-07-29T09:08:35;6.28;;;2.60;;
8628;SDS011;4352;49.404;11.092;2022-07-29T09:11:02;5.28;;;2.60;;
8628;SDS011;4352;49.404;11.092;2022-07-29T09:13:31;4.10;;;2.60;;
8628;SDS011;4352;49.404;11.092;2022-07-29T09:15:59;5.35;;;2.83;;
8628;SDS011;4352;49.404;11.092;2022-07-29T09:18:33;4.93;;;2.45;;
8628;SDS011;4352;49.404;11.092;2022-07-29T09:21:00;5.32;;;2.70;;
8628;SDS011;4352;49.404;11.092;2022-07-29T09:24:00;2.97;;;2.60;;
8628;SDS011;4352;49.404;11.092;2022-07-29T09:26:28;8.00;;;3.05;;
8628;SDS011;4352;49.404;11.092;2022-07-29T09:28:55;6.20;;;3.00;;
8628;SDS011;4352;49.404;11.092;2022-07-29T09:31:26;5.68;;;2.80;;
8628;SDS011;4352;49.404;11.092;2022-07-29T09:33:58;3.97;;;2.65;;
8628;SDS011;4352;49.404;11.092;2022-07-29T09:36:26;4.30;;;2.50;;
8628;SDS011;4352;49.404;11.092;2022-07-29T09:38:57;11.70;;;2.80;;
8628;SDS011;4352;49.404;11.092;2022-07-29T09:41:26;3.17;;;2.60;;
8628;SDS011;4352;49.404;11.092;2022-07-29T09:43:54;5.25;;;2.78;;
8628;SDS011;4352;49.404;11.092;2022-07-29T09:46:21;4.72;;;2.55;;
8628;SDS011;4352;49.404;11.092;2022-07-29T09:51:30;3.78;;;2.72;;
8628;SDS011;4352;49.404;11.092;2022-07-29T09:53:57;3.30;;;3.00;;
8628;SDS011;4352;49.404;11.092;2022-07-29T09:56:39;5.15;;;2.90;;
8628;SDS011;4352;49.404;11.092;2022-07-29T09:59:06;3.92;;;2.60;;
8628;SDS011;4352;49.404;11.092;2022-07-29T10:01:33;3.83;;;2.40;;
8628;SDS011;4352;49.404;11.092;2022-07-29T10:04:01;5.00;;;2.90;;
8628;SDS011;4352;49.404;11.092;2022-07-29T10:06:28;4.53;;;2.92;;
8628;SDS011;4352;49.404;11.092;2022-07-29T10:09:06;4.78;;;2.80;;
8628;SDS011;4352;49.404;11.092;2022-07-29T10:11:34;4.22;;;2.67;;
8628;SDS011;4352;49.404;11.092;2022-07-29T10:14:02;4.90;;;2.80;;
8628;SDS011;4352;49.404;11.092;2022-07-29T10:16:30;3.92;;;2.75;;
8628;SDS011;4352;49.404;11.092;2022-07-29T10:18:58;3.97;;;2.83;;
8628;SDS011;4352;49.404;11.092;2022-07-29T10:21:26;3.55;;;2.80;;
8628;SDS011;4352;49.404;11.092;2022-07-29T10:23:53;3.50;;;2.67;;
8628;SDS011;4352;49.404;11.092;2022-07-29T10:26:20;7.88;;;2.50;;
8628;SDS011;4352;49.404;11.092;2022-07-29T10:28:47;5.07;;;2.90;;
8628;SDS011;4352;49.404;11.092;2022-07-29T10:31:19;4.75;;;2.78;;
8628;SDS011;4352;49.404;11.092;2022-07-29T10:33:51;4.47;;;2.90;;
8628;SDS011;4352;49.404;11.092;2022-07-29T10:36:24;7.75;;;3.00;;
8628;SDS011;4352;49.404;11.092;2022-07-29T10:38:55;3.58;;;2.80;;
8628;SDS011;4352;49.404;11.092;2022-07-29T10:44:08;4.93;;;2.63;;
8628;SDS011;4352;49.404;11.092;2022-07-29T10:46:38;3.38;;;3.03;;
8628;SDS011;4352;49.404;11.092;2022-07-29T10:49:06;2.70;;;2.50;;
8628;SDS011;4352;49.404;11.092;2022-07-29T10:54:35;3.50;;;2.80;;
8628;SDS011;4352;49.404;11.092;2022-07-29T10:57:10;6.32;;;3.10;;
8628;SDS011;4352;49.404;11.092;2022-07-29T10:59:37;3.28;;;2.97;;
8628;SDS011;4352;49.404;11.092;2022-07-29T11:02:16;3.40;;;3.10;;
8628;SDS011;4352;49.404;11.092;2022-07-29T11:05:04;7.07;;;2.58;;
8628;SDS011;4352;49.404;11.092;2022-07-29T11:07:33;4.60;;;3.42;;
8628;SDS011;4352;49.404;11.092;2022-07-29T11:10:19;6.05;;;2.90;;
8628;SDS011;4352;49.404;11.092;2022-07-29T11:12:46;5.85;;;3.00;;
8628;SDS011;4352;49.404;11.092;2022-07-29T11:15:14;6.95;;;3.33;;
8628;SDS011;4352;49.404;11.092;2022-07-29T11:20:34;4.50;;;2.92;;
8628;SDS011;4352;49.404;11.092;2022-07-29T11:23:12;4.07;;;2.75;;
8628;SDS011;4352;49.404;11.092;2022-07-29T11:25:43;5.53;;;3.08;;
8628;SDS011;4352;49.404;11.092;2022-07-29T11:28:12;6.20;;;2.95;;
8628;SDS011;4352;49.404;11.092;2022-07-29T11:30:47;6.95;;;2.90;;
8628;SDS011;4352;49.404;11.092;2022-07-29T11:33:26;7.50;;;3.30;;
8628;SDS011;4352;49.404;11.092;2022-07-29T11:36:10;6.63;;;3.17;;
8628;SDS011;4352;49.404;11.092;2022-07-29T11:38:38;3.30;;;2.97;;
8628;SDS011;4352;49.404;11.092;2022-07-29T11:41:21;6.25;;;3.60;;
8628;SDS011;4352;49.404;11.092;2022-07-29T11:43:49;6.18;;;3.08;;
8628;SDS011;4352;49.404;11.092;2022-07-29T11:46:18;5.78;;;3.22;;
8628;SDS011;4352;49.404;11.092;2022-07-29T11:48:45;7.43;;;3.40;;
8628;SDS011;4352;49.404;11.092;2022-07-29T11:51:13;5.53;;;3.30;;
8628;SDS011;4352;49.404;11.092;2022-07-29T11:53:41;10.43;;;3.00;;
8628;SDS011;4352;49.404;11.092;2022-07-29T11:56:14;6.53;;;3.35;;
8628;SDS011;4352;49.404;11.092;2022-07-29T11:58:41;9.95;;;3.58;;
8628;SDS011;4352;49.404;11.092;2022-07-29T12:01:08;3.97;;;3.25;;
8628;SDS011;4352;49.404;11.092;2022-07-29T12:03:39;5.47;;;3.33;;
8628;SDS011;4352;49.404;11.092;2022-07-29T12:06:11;7.25;;;3.60;;
8628;SDS011;4352;49.404;11.092;2022-07-29T12:08:40;4.72;;;3.50;;
8628;SDS011;4352;49.404;11.092;2022-07-29T12:11:14;5.28;;;3.40;;
8628;SDS011;4352;49.404;11.092;2022-07-29T12:13:41;3.30;;;2.88;;
8628;SDS011;4352;49.404;11.092;2022-07-29T12:16:08;3.55;;;3.17;;
8628;SDS011;4352;49.404;11.092;2022-07-29T12:18:35;4.85;;;3.42;;
8628;SDS011;4352;49.404;11.092;2022-07-29T12:21:03;4.63;;;3.38;;
8628;SDS011;4352;49.404;11.092;2022-07-29T12:23:30;4.03;;;3.08;;
8628;SDS011;4352;49.404;11.092;2022-07-29T12:25:59;8.63;;;3.53;;
8628;SDS011;4352;49.404;11.092;2022-07-29T12:28:26;7.20;;;2.92;;
8628;SDS011;4352;49.404;11.092;2022-07-29T12:30:53;5.68;;;3.20;;
8628;SDS011;4352;49.404;11.092;2022-07-29T12:33:21;4.68;;;2.95;;
8628;SDS011;4352;49.404;11.092;2022-07-29T12:35:50;4.00;;;2.90;;
8628;SDS011;4352;49.404;11.092;2022-07-29T12:38:18;3.55;;;3.13;;
8628;SDS011;4352;49.404;11.092;2022-07-29T12:40:46;4.15;;;3.05;;
8628;SDS011;4352;49.404;11.092;2022-07-29T12:43:15;4.00;;;2.85;;
8628;SDS011;4352;49.404;11.092;2022-07-29T12:45:43;3.40;;;2.80;;
8628;SDS011;4352;49.404;11.092;2022-07-29T12:48:10;3.97;;;2.78;;
8628;SDS011;4352;49.404;11.092;2022-07-29T12:50:51;3.40;;;2.70;;
8628;SDS011;4352;49.404;11.092;2022-07-29T12:53:18;5.82;;;2.90;;
8628;SDS011;4352;49.404;11.092;2022-07-29T12:55:46;5.18;;;3.00;;
8628;SDS011;4352;49.404;11.092;2022-07-29T12:58:26;3.22;;;2.92;;
8628;SDS011;4352;49.404;11.092;2022-07-29T13:01:04;6.25;;;2.95;;
8628;SDS011;4352;49.404;11.092;2022-07-29T13:03:48;3.35;;;2.65;;
8628;SDS011;4352;49.404;11.092;2022-07-29T13:06:29;6.68;;;2.60;;
8628;SDS011;4352;49.404;11.092;2022-07-29T13:08:58;8.30;;;2.85;;
8628;SDS011;4352;49.404;11.092;2022-07-29T13:11:29;4.05;;;2.90;;
8628;SDS011;4352;49.404;11.092;2022-07-29T13:13:57;6.93;;;3.33;;
8628;SDS011;4352;49.404;11.092;2022-07-29T13:16:24;4.13;;;3.60;;
8628;SDS011;4352;49.404;11.092;2022-07-29T13:19:03;3.80;;;3.35;;
8628;SDS011;4352;49.404;11.092;2022-07-29T13:21:30;4.25;;;3.05;;
8628;SDS011;4352;49.404;11.092;2022-07-29T13:23:57;4.93;;;3.55;;
8628;SDS011;4352;49.404;11.092;2022-07-29T13:26:24;5.63;;;3.60;;
8628;SDS011;4352;49.404;11.092;2022-07-29T13:28:52;5.00;;;3.08;;
8628;SDS011;4352;49.404;11.092;2022-07-29T13:31:21;3.95;;;2.92;;
8628;SDS011;4352;49.404;11.092;2022-07-29T13:33:48;7.72;;;2.90;;
8628;SDS011;4352;49.404;11.092;2022-07-29T13:36:15;3.47;;;3.03;;
8628;SDS011;4352;49.404;11.092;2022-07-29T13:38:42;3.10;;;2.80;;
8628;SDS011;4352;49.404;11.092;2022-07-29T13:41:10;6.00;;;2.90;;
8628;SDS011;4352;49.404;11.092;2022-07-29T13:43:37;3.00;;;2.60;;
8628;SDS011;4352;49.404;11.092;2022-07-29T13:46:04;2.50;;;2.17;;
8628;SDS011;4352;49.404;11.092;2022-07-29T13:48:32;6.70;;;2.23;;
8628;SDS011;4352;49.404;11.092;2022-07-29T13:50:59;3.50;;;1.93;;
8628;SDS011;4352;49.404;11.092;2022-07-29T13:53:27;4.90;;;2.50;;
8628;SDS011;4352;49.404;11.092;2022-07-29T13:55:54;3.00;;;2.43;;
8628;SDS011;4352;49.404;11.092;2022-07-29T13:58:21;4.00;;;2.67;;
8628;SDS011;4352;49.404;11.092;2022-07-29T14:00:48;3.50;;;2.47;;
8628;SDS011;4352;49.404;11.092;2022-07-29T14:03:15;2.60;;;2.30;;
8628;SDS011;4352;49.404;11.092;2022-07-29T14:05:44;4.53;;;2.60;;
8628;SDS011;4352;49.404;11.092;2022-07-29T14:08:11;2.73;;;2.30;;
8628;SDS011;4352;49.404;11.092;2022-07-29T14:10:38;4.27;;;2.50;;
8628;SDS011;4352;49.404;11.092;2022-07-29T14:13:05;7.40;;;2.73;;
8628;SDS011;4352;49.404;11.092;2022-07-29T14:15:32;6.20;;;3.00;;
8628;SDS011;4352;49.404;11.092;2022-07-29T14:17:59;6.20;;;2.73;;
8628;SDS011;4352;49.404;11.092;2022-07-29T14:20:27;3.97;;;2.90;;
8628;SDS011;4352;49.404;11.092;2022-07-29T14:22:56;6.27;;;2.70;;
8628;SDS011;4352;49.404;11.092;2022-07-29T14:25:24;6.10;;;2.57;;
8628;SDS011;4352;49.404;11.092;2022-07-29T14:27:51;5.63;;;3.10;;
8628;SDS011;4352;49.404;11.092;2022-07-29T14:30:19;4.53;;;2.70;;
8628;SDS011;4352;49.404;11.092;2022-07-29T14:32:46;8.80;;;2.93;;
8628;SDS011;4352;49.404;11.092;2022-07-29T14:35:13;3.87;;;2.80;;
8628;SDS011;4352;49.404;11.092;2022-07-29T14:37:41;7.60;;;3.27;;
8628;SDS011;4352;49.404;11.092;2022-07-29T14:40:10;5.53;;;3.10;;
8628;SDS011;4352;49.404;11.092;2022-07-29T14:42:37;4.23;;;3.03;;
8628;SDS011;4352;49.404;11.092;2022-07-29T14:45:05;4.43;;;2.77;;
8628;SDS011;4352;49.404;11.092;2022-07-29T14:47:33;4.43;;;2.90;;
8628;SDS011;4352;49.404;11.092;2022-07-29T14:50:00;8.83;;;3.23;;
8628;SDS011;4352;49.404;11.092;2022-07-29T14:52:28;5.33;;;2.77;;
8628;SDS011;4352;49.404;11.092;2022-07-29T14:54:55;3.40;;;3.10;;
8628;SDS011;4352;49.404;11.092;2022-07-29T14:57:24;5.95;;;2.80;;
8628;SDS011;4352;49.404;11.092;2022-07-29T14:59:51;5.45;;;2.92;;
8628;SDS011;4352;49.404;11.092;2022-07-29T15:02:18;7.05;;;3.13;;
8628;SDS011;4352;49.404;11.092;2022-07-29T15:04:45;4.57;;;2.60;;
8628;SDS011;4352;49.404;11.092;2022-07-29T15:07:13;4.10;;;3.08;;
8628;SDS011;4352;49.404;11.092;2022-07-29T15:09:40;5.53;;;2.90;;
8628;SDS011;4352;49.404;11.092;2022-07-29T15:12:10;6.38;;;2.78;;
8628;SDS011;4352;49.404;11.092;2022-07-29T15:14:38;8.55;;;2.67;;
8628;SDS011;4352;49.404;11.092;2022-07-29T15:17:06;4.20;;;2.65;;
8628;SDS011;4352;49.404;11.092;2022-07-29T15:19:33;5.22;;;3.38;;
8628;SDS011;4352;49.404;11.092;2022-07-29T15:22:00;6.28;;;3.17;;
8628;SDS011;4352;49.404;11.092;2022-07-29T15:24:29;5.80;;;2.90;;